sensor_id;sensor_type;location;lat;lon;timestamp;temperature;humidity
19060;DHT22;9663;48.996;8.334;2022-11-20T00:01:23;7.90;76.00
19060;DHT22;9663;48.996;8.334;2022-11-20T00:03:54;8.00;76.30
19060;DHT22;9663;48.996;8.334;2022-11-20T00:06:22;8.20;77.10
19060;DHT22;9663;48.996;8.334;2022-11-20T00:08:49;8.10;76.20
19060;DHT22;9663;48.996;8.334;2022-11-20T00:11:20;8.20;76.20
19060;DHT22;9663;48.996;8.334;2022-11-20T00:13:49;8.20;76.90
19060;DHT22;9663;48.996;8.334;2022-11-20T00:16:19;8.30;76.10
19060;DHT22;9663;48.996;8.334;2022-11-20T00:18:46;8.20;76.10
19060;DHT22;9663;48.996;8.334;2022-11-20T00:21:15;8.20;76.10
19060;DHT22;9663;48.996;8.334;2022-11-20T00:23:41;8.20;76.10
19060;DHT22;9663;48.996;8.334;2022-11-20T00:26:10;8.20;76.10
19060;DHT22;9663;48.996;8.334;2022-11-20T00:28:38;8.20;76.10
19060;DHT22;9663;48.996;8.334;2022-11-20T00:31:07;8.20;76.10
19060;DHT22;9663;48.996;8.334;2022-11-20T00:33:34;8.20;76.20
19060;DHT22;9663;48.996;8.334;2022-11-20T00:36:09;8.10;76.10
19060;DHT22;9663;48.996;8.334;2022-11-20T00:38:37;8.30;76.10
19060;DHT22;9663;48.996;8.334;2022-11-20T00:41:06;8.20;76.00
19060;DHT22;9663;48.996;8.334;2022-11-20T00:43:33;8.30;76.20
19060;DHT22;9663;48.996;8.334;2022-11-20T00:46:01;8.20;76.10
19060;DHT22;9663;48.996;8.334;2022-11-20T00:48:29;8.30;76.10
19060;DHT22;9663;48.996;8.334;2022-11-20T00:50:55;8.20;76.10
19060;DHT22;9663;48.996;8.334;2022-11-20T00:53:21;8.40;76.20
19060;DHT22;9663;48.996;8.334;2022-11-20T00:55:58;9.20;76.60
19060;DHT22;9663;48.996;8.334;2022-11-20T00:58:33;8.30;76.10
19060;DHT22;9663;48.996;8.334;2022-11-20T01:01:02;8.30;76.00
19060;DHT22;9663;48.996;8.334;2022-11-20T01:03:34;8.20;76.00
19060;DHT22;9663;48.996;8.334;2022-11-20T01:06:03;8.40;76.10
19060;DHT22;9663;48.996;8.334;2022-11-20T01:08:34;8.30;76.10
19060;DHT22;9663;48.996;8.334;2022-11-20T01:11:02;8.30;76.10
19060;DHT22;9663;48.996;8.334;2022-11-20T01:13:31;8.30;76.10
19060;DHT22;9663;48.996;8.334;2022-11-20T01:16:18;8.40;76.20
19060;DHT22;9663;48.996;8.334;2022-11-20T01:18:52;8.30;76.10
19060;DHT22;9663;48.996;8.334;2022-11-20T01:21:23;8.30;76.10
19060;DHT22;9663;48.996;8.334;2022-11-20T01:23:51;8.50;76.20
19060;DHT22;9663;48.996;8.334;2022-11-20T01:26:26;8.40;76.10
19060;DHT22;9663;48.996;8.334;2022-11-20T01:28:55;8.30;76.20
19060;DHT22;9663;48.996;8.334;2022-11-20T01:31:27;8.30;76.30
19060;DHT22;9663;48.996;8.334;2022-11-20T01:34:03;8.30;76.30
19060;DHT22;9663;48.996;8.334;2022-11-20T01:36:32;8.40;76.40
19060;DHT22;9663;48.996;8.334;2022-11-20T01:39:02;8.50;76.60
19060;DHT22;9663;48.996;8.334;2022-11-20T01:41:31;8.50;76.60
19060;DHT22;9663;48.996;8.334;2022-11-20T01:44:19;8.50;76.60
19060;DHT22;9663;48.996;8.334;2022-11-20T01:47:02;8.40;76.40
19060;DHT22;9663;48.996;8.334;2022-11-20T01:49:44;8.60;76.60
19060;DHT22;9663;48.996;8.334;2022-11-20T01:52:38;8.70;76.70
19060;DHT22;9663;48.996;8.334;2022-11-20T01:55:15;8.80;76.60
19060;DHT22;9663;48.996;8.334;2022-11-20T01:57:45;8.70;76.50
19060;DHT22;9663;48.996;8.334;2022-11-20T02:00:15;9.10;76.70
19060;DHT22;9663;48.996;8.334;2022-11-20T02:02:53;8.70;76.50
19060;DHT22;9663;48.996;8.334;2022-11-20T02:08:00;8.90;76.80
19060;DHT22;9663;48.996;8.334;2022-11-20T02:10:28;9.00;76.70
19060;DHT22;9663;48.996;8.334;2022-11-20T02:12:55;8.90;76.70
19060;DHT22;9663;48.996;8.334;2022-11-20T02:15:40;9.10;76.90
19060;DHT22;9663;48.996;8.334;2022-11-20T02:18:06;9.10;76.90
19060;DHT22;9663;48.996;8.334;2022-11-20T02:20:33;9.20;76.90
19060;DHT22;9663;48.996;8.334;2022-11-20T02:23:00;9.30;76.90
19060;DHT22;9663;48.996;8.334;2022-11-20T02:25:33;9.80;77.20
19060;DHT22;9663;48.996;8.334;2022-11-20T02:28:02;10.00;77.20
19060;DHT22;9663;48.996;8.334;2022-11-20T02:30:28;9.40;76.90
19060;DHT22;9663;48.996;8.334;2022-11-20T02:32:54;9.40;76.80
19060;DHT22;9663;48.996;8.334;2022-11-20T02:37:51;9.50;76.80
19060;DHT22;9663;48.996;8.334;2022-11-20T02:40:20;9.60;76.80
19060;DHT22;9663;48.996;8.334;2022-11-20T02:42:45;9.70;76.80
19060;DHT22;9663;48.996;8.334;2022-11-20T02:45:12;9.80;76.70
19060;DHT22;9663;48.996;8.334;2022-11-20T02:47:37;9.50;76.50
19060;DHT22;9663;48.996;8.334;2022-11-20T02:50:04;9.80;76.60
19060;DHT22;9663;48.996;8.334;2022-11-20T02:52:31;9.70;76.50
19060;DHT22;9663;48.996;8.334;2022-11-20T02:54:56;10.20;76.80
19060;DHT22;9663;48.996;8.334;2022-11-20T02:57:22;9.80;76.40
19060;DHT22;9663;48.996;8.334;2022-11-20T02:59:48;10.00;76.50
19060;DHT22;9663;48.996;8.334;2022-11-20T03:02:14;10.20;76.60
19060;DHT22;9663;48.996;8.334;2022-11-20T03:04:39;10.00;76.40
19060;DHT22;9663;48.996;8.334;2022-11-20T03:07:05;9.90;76.20
19060;DHT22;9663;48.996;8.334;2022-11-20T03:09:31;9.90;76.20
19060;DHT22;9663;48.996;8.334;2022-11-20T03:11:56;10.00;76.30
19060;DHT22;9663;48.996;8.334;2022-11-20T03:14:22;9.90;76.20
19060;DHT22;9663;48.996;8.334;2022-11-20T03:16:47;10.30;76.40
19060;DHT22;9663;48.996;8.334;2022-11-20T03:19:13;9.90;76.10
19060;DHT22;9663;48.996;8.334;2022-11-20T03:21:39;10.10;76.20
19060;DHT22;9663;48.996;8.334;2022-11-20T03:24:06;10.30;76.30
19060;DHT22;9663;48.996;8.334;2022-11-20T03:26:32;10.10;76.10
19060;DHT22;9663;48.996;8.334;2022-11-20T03:29:00;10.00;76.10
19060;DHT22;9663;48.996;8.334;2022-11-20T03:31:34;10.30;76.20
19060;DHT22;9663;48.996;8.334;2022-11-20T03:34:02;10.10;75.90
19060;DHT22;9663;48.996;8.334;2022-11-20T03:36:29;10.20;76.00
19060;DHT22;9663;48.996;8.334;2022-11-20T03:38:56;10.10;75.90
19060;DHT22;9663;48.996;8.334;2022-11-20T03:41:27;10.20;75.90
19060;DHT22;9663;48.996;8.334;2022-11-20T03:43:58;10.10;75.80
19060;DHT22;9663;48.996;8.334;2022-11-20T03:46:26;11.20;76.40
19060;DHT22;9663;48.996;8.334;2022-11-20T03:48:53;10.70;76.10
19060;DHT22;9663;48.996;8.334;2022-11-20T03:51:28;10.20;75.80
19060;DHT22;9663;48.996;8.334;2022-11-20T03:53:57;10.20;75.70
19060;DHT22;9663;48.996;8.334;2022-11-20T03:56:27;10.20;75.80
19060;DHT22;9663;48.996;8.334;2022-11-20T03:58:56;11.30;76.40
19060;DHT22;9663;48.996;8.334;2022-11-20T04:01:25;10.30;75.70
19060;DHT22;9663;48.996;8.334;2022-11-20T04:03:54;10.40;75.80
19060;DHT22;9663;48.996;8.334;2022-11-20T04:06:24;10.30;75.70
19060;DHT22;9663;48.996;8.334;2022-11-20T04:08:53;10.20;75.70
19060;DHT22;9663;48.996;8.334;2022-11-20T04:11:22;10.30;75.60
19060;DHT22;9663;48.996;8.334;2022-11-20T04:13:50;10.20;75.50
19060;DHT22;9663;48.996;8.334;2022-11-20T04:16:18;11.50;76.30
19060;DHT22;9663;48.996;8.334;2022-11-20T04:18:45;10.30;75.50
19060;DHT22;9663;48.996;8.334;2022-11-20T04:21:11;10.20;75.50
19060;DHT22;9663;48.996;8.334;2022-11-20T04:23:37;10.30;75.60
19060;DHT22;9663;48.996;8.334;2022-11-20T04:26:06;10.30;75.60
19060;DHT22;9663;48.996;8.334;2022-11-20T04:28:33;10.20;75.50
19060;DHT22;9663;48.996;8.334;2022-11-20T04:31:05;10.30;75.60
19060;DHT22;9663;48.996;8.334;2022-11-20T04:33:32;10.30;75.60
19060;DHT22;9663;48.996;8.334;2022-11-20T04:36:04;10.30;75.60
19060;DHT22;9663;48.996;8.334;2022-11-20T04:38:31;10.30;75.60
19060;DHT22;9663;48.996;8.334;2022-11-20T04:41:02;10.40;75.60
19060;DHT22;9663;48.996;8.334;2022-11-20T04:43:30;10.20;75.50
19060;DHT22;9663;48.996;8.334;2022-11-20T04:45:57;10.20;75.50
19060;DHT22;9663;48.996;8.334;2022-11-20T04:48:26;10.20;75.50
19060;DHT22;9663;48.996;8.334;2022-11-20T04:50:53;11.00;75.90
19060;DHT22;9663;48.996;8.334;2022-11-20T04:53:20;10.30;75.40
19060;DHT22;9663;48.996;8.334;2022-11-20T04:55:46;11.20;76.00
19060;DHT22;9663;48.996;8.334;2022-11-20T04:58:13;10.40;75.60
19060;DHT22;9663;48.996;8.334;2022-11-20T05:00:39;11.30;76.10
19060;DHT22;9663;48.996;8.334;2022-11-20T05:03:04;10.60;75.50
19060;DHT22;9663;48.996;8.334;2022-11-20T05:05:30;10.10;75.20
19060;DHT22;9663;48.996;8.334;2022-11-20T05:07:57;10.40;75.40
19060;DHT22;9663;48.996;8.334;2022-11-20T05:10:24;10.60;75.50
19060;DHT22;9663;48.996;8.334;2022-11-20T05:12:50;10.70;75.60
19060;DHT22;9663;48.996;8.334;2022-11-20T05:15:16;10.50;75.40
19060;DHT22;9663;48.996;8.334;2022-11-20T05:17:47;10.30;75.20
19060;DHT22;9663;48.996;8.334;2022-11-20T05:20:14;11.10;75.70
19060;DHT22;9663;48.996;8.334;2022-11-20T05:22:40;10.40;75.30
19060;DHT22;9663;48.996;8.334;2022-11-20T05:25:06;10.90;75.60
19060;DHT22;9663;48.996;8.334;2022-11-20T05:27:31;10.50;75.30
19060;DHT22;9663;48.996;8.334;2022-11-20T05:29:57;11.50;75.90
19060;DHT22;9663;48.996;8.334;2022-11-20T05:32:23;10.50;75.30
19060;DHT22;9663;48.996;8.334;2022-11-20T05:34:51;10.30;75.10
19060;DHT22;9663;48.996;8.334;2022-11-20T05:37:17;11.60;76.00
19060;DHT22;9663;48.996;8.334;2022-11-20T05:39:43;10.40;75.40
19060;DHT22;9663;48.996;8.334;2022-11-20T05:42:08;10.20;75.10
19060;DHT22;9663;48.996;8.334;2022-11-20T05:44:53;10.20;75.10
19060;DHT22;9663;48.996;8.334;2022-11-20T05:47:18;11.80;76.10
19060;DHT22;9663;48.996;8.334;2022-11-20T05:49:44;10.80;75.60
19060;DHT22;9663;48.996;8.334;2022-11-20T05:52:10;10.30;75.10
19060;DHT22;9663;48.996;8.334;2022-11-20T05:54:35;10.30;75.10
19060;DHT22;9663;48.996;8.334;2022-11-20T05:57:01;10.30;75.60
19060;DHT22;9663;48.996;8.334;2022-11-20T05:59:27;10.30;75.10
19060;DHT22;9663;48.996;8.334;2022-11-20T06:01:52;10.30;75.10
19060;DHT22;9663;48.996;8.334;2022-11-20T06:04:18;11.20;75.70
19060;DHT22;9663;48.996;8.334;2022-11-20T06:06:43;10.30;75.10
19060;DHT22;9663;48.996;8.334;2022-11-20T06:09:09;10.30;75.10
19060;DHT22;9663;48.996;8.334;2022-11-20T06:11:35;11.30;75.70
19060;DHT22;9663;48.996;8.334;2022-11-20T06:14:00;10.20;75.10
19060;DHT22;9663;48.996;8.334;2022-11-20T06:16:26;10.30;75.10
19060;DHT22;9663;48.996;8.334;2022-11-20T06:18:52;11.30;75.80
19060;DHT22;9663;48.996;8.334;2022-11-20T06:21:20;11.50;75.90
19060;DHT22;9663;48.996;8.334;2022-11-20T06:23:47;10.30;75.90
19060;DHT22;9663;48.996;8.334;2022-11-20T06:26:20;10.30;75.20
19060;DHT22;9663;48.996;8.334;2022-11-20T06:28:48;10.30;75.00
19060;DHT22;9663;48.996;8.334;2022-11-20T06:31:16;10.90;75.40
19060;DHT22;9663;48.996;8.334;2022-11-20T06:33:44;10.50;75.10
19060;DHT22;9663;48.996;8.334;2022-11-20T06:36:11;10.70;75.30
19060;DHT22;9663;48.996;8.334;2022-11-20T06:38:39;10.20;75.00
19060;DHT22;9663;48.996;8.334;2022-11-20T06:41:07;10.40;75.10
19060;DHT22;9663;48.996;8.334;2022-11-20T06:43:35;10.30;75.00
19060;DHT22;9663;48.996;8.334;2022-11-20T06:46:01;10.50;75.20
19060;DHT22;9663;48.996;8.334;2022-11-20T06:48:28;10.20;75.10
19060;DHT22;9663;48.996;8.334;2022-11-20T06:50:55;10.30;75.10
19060;DHT22;9663;48.996;8.334;2022-11-20T06:53:24;10.40;75.20
19060;DHT22;9663;48.996;8.334;2022-11-20T06:55:50;10.30;75.10
19060;DHT22;9663;48.996;8.334;2022-11-20T06:58:17;10.30;75.10
19060;DHT22;9663;48.996;8.334;2022-11-20T07:00:43;10.30;76.00
19060;DHT22;9663;48.996;8.334;2022-11-20T07:03:11;10.20;75.10
19060;DHT22;9663;48.996;8.334;2022-11-20T07:05:38;10.30;75.10
19060;DHT22;9663;48.996;8.334;2022-11-20T07:08:04;10.30;75.10
19060;DHT22;9663;48.996;8.334;2022-11-20T07:10:30;10.30;75.10
19060;DHT22;9663;48.996;8.334;2022-11-20T07:12:57;10.90;75.50
19060;DHT22;9663;48.996;8.334;2022-11-20T07:15:23;10.30;75.10
19060;DHT22;9663;48.996;8.334;2022-11-20T07:17:51;11.40;75.80
19060;DHT22;9663;48.996;8.334;2022-11-20T07:20:17;10.60;76.10
19060;DHT22;9663;48.996;8.334;2022-11-20T07:22:43;12.20;76.20
19060;DHT22;9663;48.996;8.334;2022-11-20T07:25:10;10.30;75.00
19060;DHT22;9663;48.996;8.334;2022-11-20T07:27:36;10.30;75.10
19060;DHT22;9663;48.996;8.334;2022-11-20T07:30:03;10.30;75.20
19060;DHT22;9663;48.996;8.334;2022-11-20T07:32:29;10.40;75.20
19060;DHT22;9663;48.996;8.334;2022-11-20T07:34:55;10.30;75.20
19060;DHT22;9663;48.996;8.334;2022-11-20T07:37:21;10.30;75.30
19060;DHT22;9663;48.996;8.334;2022-11-20T07:39:46;10.50;75.40
19060;DHT22;9663;48.996;8.334;2022-11-20T07:42:12;10.20;75.30
19060;DHT22;9663;48.996;8.334;2022-11-20T07:44:38;10.20;75.20
19060;DHT22;9663;48.996;8.334;2022-11-20T07:47:04;11.00;75.70
19060;DHT22;9663;48.996;8.334;2022-11-20T07:49:30;10.30;75.30
19060;DHT22;9663;48.996;8.334;2022-11-20T07:51:55;10.20;75.20
19060;DHT22;9663;48.996;8.334;2022-11-20T07:54:22;10.30;75.30
19060;DHT22;9663;48.996;8.334;2022-11-20T07:56:48;10.30;75.30
19060;DHT22;9663;48.996;8.334;2022-11-20T07:59:14;10.20;75.30
19060;DHT22;9663;48.996;8.334;2022-11-20T08:01:41;10.60;75.50
19060;DHT22;9663;48.996;8.334;2022-11-20T08:04:08;10.20;75.30
19060;DHT22;9663;48.996;8.334;2022-11-20T08:06:35;10.90;75.70
19060;DHT22;9663;48.996;8.334;2022-11-20T08:09:01;10.30;75.40
19060;DHT22;9663;48.996;8.334;2022-11-20T08:11:27;10.20;75.40
19060;DHT22;9663;48.996;8.334;2022-11-20T08:14:12;10.40;75.50
19060;DHT22;9663;48.996;8.334;2022-11-20T08:16:45;10.40;75.60
19060;DHT22;9663;48.996;8.334;2022-11-20T08:19:14;10.40;75.50
19060;DHT22;9663;48.996;8.334;2022-11-20T08:21:41;11.10;76.00
19060;DHT22;9663;48.996;8.334;2022-11-20T08:24:09;10.50;75.60
19060;DHT22;9663;48.996;8.334;2022-11-20T08:26:36;10.50;75.70
19060;DHT22;9663;48.996;8.334;2022-11-20T08:29:04;10.30;75.60
19060;DHT22;9663;48.996;8.334;2022-11-20T08:31:31;10.90;75.90
19060;DHT22;9663;48.996;8.334;2022-11-20T08:33:57;10.30;75.60
19060;DHT22;9663;48.996;8.334;2022-11-20T08:36:24;10.50;75.80
19060;DHT22;9663;48.996;8.334;2022-11-20T08:38:54;10.40;75.70
19060;DHT22;9663;48.996;8.334;2022-11-20T08:41:21;10.50;75.70
19060;DHT22;9663;48.996;8.334;2022-11-20T08:43:58;10.60;75.70
19060;DHT22;9663;48.996;8.334;2022-11-20T08:46:26;10.50;75.70
19060;DHT22;9663;48.996;8.334;2022-11-20T08:48:53;10.90;75.90
19060;DHT22;9663;48.996;8.334;2022-11-20T08:51:19;10.80;75.80
19060;DHT22;9663;48.996;8.334;2022-11-20T08:53:46;10.50;75.70
19060;DHT22;9663;48.996;8.334;2022-11-20T08:56:14;10.40;75.70
19060;DHT22;9663;48.996;8.334;2022-11-20T08:58:40;11.70;76.40
19060;DHT22;9663;48.996;8.334;2022-11-20T09:01:06;11.00;75.80
19060;DHT22;9663;48.996;8.334;2022-11-20T09:03:32;10.50;75.50
19060;DHT22;9663;48.996;8.334;2022-11-20T09:06:03;10.60;75.60
19060;DHT22;9663;48.996;8.334;2022-11-20T09:08:32;10.60;75.60
19060;DHT22;9663;48.996;8.334;2022-11-20T09:10:58;10.60;75.60
19060;DHT22;9663;48.996;8.334;2022-11-20T09:13:26;10.60;75.60
19060;DHT22;9663;48.996;8.334;2022-11-20T09:15:57;11.50;76.20
19060;DHT22;9663;48.996;8.334;2022-11-20T09:18:25;10.60;75.70
19060;DHT22;9663;48.996;8.334;2022-11-20T09:20:51;10.80;75.70
19060;DHT22;9663;48.996;8.334;2022-11-20T09:23:21;10.70;76.00
19060;DHT22;9663;48.996;8.334;2022-11-20T09:25:46;10.60;75.80
19060;DHT22;9663;48.996;8.334;2022-11-20T09:28:12;10.70;75.70
19060;DHT22;9663;48.996;8.334;2022-11-20T09:30:38;10.80;75.70
19060;DHT22;9663;48.996;8.334;2022-11-20T09:33:05;10.60;75.80
19060;DHT22;9663;48.996;8.334;2022-11-20T09:35:32;10.70;75.40
19060;DHT22;9663;48.996;8.334;2022-11-20T09:37:58;10.80;75.40
19060;DHT22;9663;48.996;8.334;2022-11-20T09:40:28;11.50;75.90
19060;DHT22;9663;48.996;8.334;2022-11-20T09:51:34;11.50;76.10
19060;DHT22;9663;48.996;8.334;2022-11-20T09:54:19;10.70;75.60
19060;DHT22;9663;48.996;8.334;2022-11-20T09:56:50;10.90;75.90
19060;DHT22;9663;48.996;8.334;2022-11-20T09:59:32;10.50;75.70
19060;DHT22;9663;48.996;8.334;2022-11-20T10:05:12;10.60;75.90
19060;DHT22;9663;48.996;8.334;2022-11-20T10:07:53;10.60;75.80
19060;DHT22;9663;48.996;8.334;2022-11-20T10:10:38;10.60;75.80
19060;DHT22;9663;48.996;8.334;2022-11-20T10:16:26;10.70;76.00
19060;DHT22;9663;48.996;8.334;2022-11-20T10:25:26;11.00;77.20
19060;DHT22;9663;48.996;8.334;2022-11-20T10:28:00;12.30;77.70
19060;DHT22;9663;48.996;8.334;2022-11-20T10:30:46;11.60;77.10
19060;DHT22;9663;48.996;8.334;2022-11-20T10:33:25;12.40;77.90
19060;DHT22;9663;48.996;8.334;2022-11-20T10:36:04;11.80;76.50
19060;DHT22;9663;48.996;8.334;2022-11-20T10:38:37;12.10;77.00
19060;DHT22;9663;48.996;8.334;2022-11-20T10:41:07;12.20;75.60
19060;DHT22;9663;48.996;8.334;2022-11-20T10:44:01;12.20;75.10
19060;DHT22;9663;48.996;8.334;2022-11-20T10:46:43;12.40;74.80
19060;DHT22;9663;48.996;8.334;2022-11-20T10:49:17;12.20;74.40
19060;DHT22;9663;48.996;8.334;2022-11-20T11:01:20;12.10;74.50
19060;DHT22;9663;48.996;8.334;2022-11-20T11:03:52;12.10;74.80
19060;DHT22;9663;48.996;8.334;2022-11-20T11:06:22;12.10;75.30
19060;DHT22;9663;48.996;8.334;2022-11-20T11:08:59;12.30;75.60
19060;DHT22;9663;48.996;8.334;2022-11-20T11:11:32;12.60;75.70
19060;DHT22;9663;48.996;8.334;2022-11-20T11:14:09;14.30;76.40
19060;DHT22;9663;48.996;8.334;2022-11-20T11:16:52;13.00;75.30
19060;DHT22;9663;48.996;8.334;2022-11-20T11:19:23;13.50;74.90
19060;DHT22;9663;48.996;8.334;2022-11-20T11:21:52;14.00;75.20
19060;DHT22;9663;48.996;8.334;2022-11-20T11:24:24;14.60;75.10
19060;DHT22;9663;48.996;8.334;2022-11-20T11:29:22;16.70;73.40
19060;DHT22;9663;48.996;8.334;2022-11-20T11:31:49;16.60;71.50
19060;DHT22;9663;48.996;8.334;2022-11-20T11:34:17;16.90;70.00
19060;DHT22;9663;48.996;8.334;2022-11-20T11:36:52;17.80;68.90
19060;DHT22;9663;48.996;8.334;2022-11-20T11:39:23;17.20;66.80
19060;DHT22;9663;48.996;8.334;2022-11-20T11:41:50;17.50;67.60
19060;DHT22;9663;48.996;8.334;2022-11-20T11:44:23;16.60;67.20
19060;DHT22;9663;48.996;8.334;2022-11-20T11:55:56;14.90;67.50
19060;DHT22;9663;48.996;8.334;2022-11-20T11:58:40;14.50;67.50
19060;DHT22;9663;48.996;8.334;2022-11-20T12:04:33;14.50;69.40
19060;DHT22;9663;48.996;8.334;2022-11-20T12:10:15;15.50;70.40
19060;DHT22;9663;48.996;8.334;2022-11-20T12:12:51;16.20;68.70
19060;DHT22;9663;48.996;8.334;2022-11-20T12:15:29;17.00;70.50
19060;DHT22;9663;48.996;8.334;2022-11-20T12:17:58;17.50;68.50
19060;DHT22;9663;48.996;8.334;2022-11-20T12:20:28;18.20;68.40
19060;DHT22;9663;48.996;8.334;2022-11-20T12:23:07;18.60;66.30
19060;DHT22;9663;48.996;8.334;2022-11-20T12:25:42;19.00;64.10
19060;DHT22;9663;48.996;8.334;2022-11-20T12:36:54;16.90;60.50
19060;DHT22;9663;48.996;8.334;2022-11-20T12:39:41;16.60;61.90
19060;DHT22;9663;48.996;8.334;2022-11-20T12:42:46;16.00;62.40
19060;DHT22;9663;48.996;8.334;2022-11-20T12:49:23;15.10;64.00
19060;DHT22;9663;48.996;8.334;2022-11-20T12:55:20;14.50;65.90
19060;DHT22;9663;48.996;8.334;2022-11-20T12:58:17;14.40;65.40
19060;DHT22;9663;48.996;8.334;2022-11-20T13:01:00;14.70;65.80
19060;DHT22;9663;48.996;8.334;2022-11-20T13:03:36;14.00;64.90
19060;DHT22;9663;48.996;8.334;2022-11-20T13:06:15;13.80;65.30
19060;DHT22;9663;48.996;8.334;2022-11-20T13:08:54;13.90;65.80
19060;DHT22;9663;48.996;8.334;2022-11-20T13:11:39;13.60;65.80
19060;DHT22;9663;48.996;8.334;2022-11-20T13:19:54;13.60;66.90
19060;DHT22;9663;48.996;8.334;2022-11-20T13:22:29;13.60;67.20
19060;DHT22;9663;48.996;8.334;2022-11-20T13:25:10;14.30;67.60
19060;DHT22;9663;48.996;8.334;2022-11-20T13:27:47;13.70;66.90
19060;DHT22;9663;48.996;8.334;2022-11-20T13:30:17;13.70;66.50
19060;DHT22;9663;48.996;8.334;2022-11-20T13:33:08;13.70;66.10
19060;DHT22;9663;48.996;8.334;2022-11-20T13:35:56;14.00;65.10
19060;DHT22;9663;48.996;8.334;2022-11-20T13:38:22;13.60;65.50
19060;DHT22;9663;48.996;8.334;2022-11-20T13:40:52;14.00;66.70
19060;DHT22;9663;48.996;8.334;2022-11-20T13:43:37;14.00;66.80
19060;DHT22;9663;48.996;8.334;2022-11-20T13:46:08;13.70;66.00
19060;DHT22;9663;48.996;8.334;2022-11-20T13:48:47;13.80;66.70
19060;DHT22;9663;48.996;8.334;2022-11-20T13:51:43;13.80;65.40
19060;DHT22;9663;48.996;8.334;2022-11-20T14:00:31;13.40;64.60
19060;DHT22;9663;48.996;8.334;2022-11-20T14:05:37;13.50;65.10
19060;DHT22;9663;48.996;8.334;2022-11-20T14:08:10;13.40;65.70
19060;DHT22;9663;48.996;8.334;2022-11-20T14:10:42;13.30;65.60
19060;DHT22;9663;48.996;8.334;2022-11-20T14:13:19;13.50;65.60
19060;DHT22;9663;48.996;8.334;2022-11-20T14:15:45;13.40;64.60
19060;DHT22;9663;48.996;8.334;2022-11-20T14:18:14;13.10;65.30
19060;DHT22;9663;48.996;8.334;2022-11-20T14:20:44;13.10;65.10
19060;DHT22;9663;48.996;8.334;2022-11-20T14:23:10;13.00;65.50
19060;DHT22;9663;48.996;8.334;2022-11-20T14:25:37;12.90;65.80
19060;DHT22;9663;48.996;8.334;2022-11-20T14:28:11;13.00;65.80
19060;DHT22;9663;48.996;8.334;2022-11-20T14:30:50;13.60;66.40
19060;DHT22;9663;48.996;8.334;2022-11-20T14:33:16;12.90;66.10
19060;DHT22;9663;48.996;8.334;2022-11-20T14:35:55;12.70;65.40
19060;DHT22;9663;48.996;8.334;2022-11-20T14:38:29;14.00;66.30
19060;DHT22;9663;48.996;8.334;2022-11-20T14:41:18;12.70;65.20
19060;DHT22;9663;48.996;8.334;2022-11-20T14:43:56;12.60;65.20
19060;DHT22;9663;48.996;8.334;2022-11-20T14:46:23;12.50;65.60
19060;DHT22;9663;48.996;8.334;2022-11-20T14:48:52;13.00;65.90
19060;DHT22;9663;48.996;8.334;2022-11-20T14:51:35;12.50;65.90
19060;DHT22;9663;48.996;8.334;2022-11-20T14:54:17;12.60;65.80
19060;DHT22;9663;48.996;8.334;2022-11-20T14:57:02;12.50;66.00
19060;DHT22;9663;48.996;8.334;2022-11-20T14:59:33;12.30;65.50
19060;DHT22;9663;48.996;8.334;2022-11-20T15:02:03;12.40;66.20
19060;DHT22;9663;48.996;8.334;2022-11-20T15:04:49;12.90;66.40
19060;DHT22;9663;48.996;8.334;2022-11-20T15:07:33;13.30;66.30
19060;DHT22;9663;48.996;8.334;2022-11-20T15:10:25;12.20;65.80
19060;DHT22;9663;48.996;8.334;2022-11-20T15:12:54;12.00;66.30
19060;DHT22;9663;48.996;8.334;2022-11-20T15:15:36;12.90;66.80
19060;DHT22;9663;48.996;8.334;2022-11-20T15:18:15;12.00;65.90
19060;DHT22;9663;48.996;8.334;2022-11-20T15:20:44;11.90;66.10
19060;DHT22;9663;48.996;8.334;2022-11-20T15:23:12;11.90;66.50
19060;DHT22;9663;48.996;8.334;2022-11-20T15:25:40;11.80;66.30
19060;DHT22;9663;48.996;8.334;2022-11-20T15:28:31;11.90;66.60
19060;DHT22;9663;48.996;8.334;2022-11-20T15:30:58;12.40;66.30
19060;DHT22;9663;48.996;8.334;2022-11-20T15:33:25;13.00;67.40
19060;DHT22;9663;48.996;8.334;2022-11-20T15:35:51;14.10;68.20
19060;DHT22;9663;48.996;8.334;2022-11-20T15:38:17;11.60;66.70
19060;DHT22;9663;48.996;8.334;2022-11-20T15:40:42;11.60;66.70
19060;DHT22;9663;48.996;8.334;2022-11-20T15:43:08;11.70;66.80
19060;DHT22;9663;48.996;8.334;2022-11-20T15:48:09;11.70;66.70
19060;DHT22;9663;48.996;8.334;2022-11-20T15:53:18;11.60;66.70
19060;DHT22;9663;48.996;8.334;2022-11-20T15:55:44;11.60;67.00
19060;DHT22;9663;48.996;8.334;2022-11-20T15:58:10;11.50;66.90
19060;DHT22;9663;48.996;8.334;2022-11-20T16:00:36;11.50;67.00
19060;DHT22;9663;48.996;8.334;2022-11-20T16:03:01;11.40;66.80
19060;DHT22;9663;48.996;8.334;2022-11-20T16:05:30;11.60;67.10
19060;DHT22;9663;48.996;8.334;2022-11-20T16:07:56;11.60;67.00
19060;DHT22;9663;48.996;8.334;2022-11-20T16:10:22;11.60;67.10
19060;DHT22;9663;48.996;8.334;2022-11-20T16:12:49;11.30;66.90
19060;DHT22;9663;48.996;8.334;2022-11-20T16:15:33;11.80;67.00
19060;DHT22;9663;48.996;8.334;2022-11-20T16:18:16;11.40;67.00
19060;DHT22;9663;48.996;8.334;2022-11-20T16:20:44;11.60;67.00
19060;DHT22;9663;48.996;8.334;2022-11-20T16:23:12;12.40;67.60
19060;DHT22;9663;48.996;8.334;2022-11-20T16:25:38;11.50;67.00
19060;DHT22;9663;48.996;8.334;2022-11-20T16:28:04;11.40;67.00
19060;DHT22;9663;48.996;8.334;2022-11-20T16:30:33;11.50;67.10
19060;DHT22;9663;48.996;8.334;2022-11-20T16:33:00;11.50;67.10
19060;DHT22;9663;48.996;8.334;2022-11-20T16:35:28;11.60;67.30
19060;DHT22;9663;48.996;8.334;2022-11-20T16:37:55;11.30;67.00
19060;DHT22;9663;48.996;8.334;2022-11-20T16:40:24;11.50;67.10
19060;DHT22;9663;48.996;8.334;2022-11-20T16:42:50;11.50;67.10
19060;DHT22;9663;48.996;8.334;2022-11-20T16:45:16;11.40;67.00
19060;DHT22;9663;48.996;8.334;2022-11-20T16:47:42;11.60;67.20
19060;DHT22;9663;48.996;8.334;2022-11-20T16:50:09;11.50;67.00
19060;DHT22;9663;48.996;8.334;2022-11-20T16:52:35;11.40;67.00
19060;DHT22;9663;48.996;8.334;2022-11-20T16:55:01;11.40;67.00
19060;DHT22;9663;48.996;8.334;2022-11-20T16:57:28;12.30;67.50
19060;DHT22;9663;48.996;8.334;2022-11-20T16:59:54;11.70;67.20
19060;DHT22;9663;48.996;8.334;2022-11-20T17:02:21;11.40;67.00
19060;DHT22;9663;48.996;8.334;2022-11-20T17:04:46;11.50;67.00
19060;DHT22;9663;48.996;8.334;2022-11-20T17:07:12;11.40;67.00
19060;DHT22;9663;48.996;8.334;2022-11-20T17:09:38;11.50;67.10
19060;DHT22;9663;48.996;8.334;2022-11-20T17:12:04;11.60;67.10
19060;DHT22;9663;48.996;8.334;2022-11-20T17:14:30;11.60;67.10
19060;DHT22;9663;48.996;8.334;2022-11-20T17:16:56;11.60;67.10
19060;DHT22;9663;48.996;8.334;2022-11-20T17:19:22;11.50;67.10
19060;DHT22;9663;48.996;8.334;2022-11-20T17:21:47;11.40;67.10
19060;DHT22;9663;48.996;8.334;2022-11-20T17:24:14;11.60;67.30
19060;DHT22;9663;48.996;8.334;2022-11-20T17:26:41;11.40;67.10
19060;DHT22;9663;48.996;8.334;2022-11-20T17:29:10;11.40;67.10
19060;DHT22;9663;48.996;8.334;2022-11-20T17:31:39;11.60;67.20
19060;DHT22;9663;48.996;8.334;2022-11-20T17:34:07;11.40;67.20
19060;DHT22;9663;48.996;8.334;2022-11-20T17:36:35;11.30;67.30
19060;DHT22;9663;48.996;8.334;2022-11-20T17:39:02;12.30;68.00